Time;durP1;ratioP1;P1;durP2;ratioP2;P2;SDS_P1;SDS_P2;PMS_P1;PMS_P2;Temp;Humidity;BMP_temperature;BMP_pressure;BME280_temperature;BME280_humidity;BME280_pressure;Samples;Min_cycle;Max_cycle;Signal;HPM_P1;HPM_P2
2023/05/21 00:02:21;;;;;;;36.55;23.27;;;15.20;81.70;;;;;;4806450;29;20047;-88
2023/05/21 00:04:51;;;;;;;36.90;22.35;;;15.10;82.00;;;;;;4806381;29;20150;-88
2023/05/21 00:07:22;;;;;;;40.65;24.33;;;15.20;82.10;;;;;;4806488;29;20399;-89
2023/05/21 00:09:49;;;;;;;35.37;21.93;;;15.20;82.00;;;;;;4791397;29;20058;-89
2023/05/21 00:12:16;;;;;;;33.10;20.70;;;15.20;81.50;;;;;;4821588;29;20058;-89
2023/05/21 00:14:43;;;;;;;42.58;25.15;;;15.20;81.30;;;;;;4806430;29;20145;-88
2023/05/21 00:17:10;;;;;;;36.47;22.38;;;15.20;81.30;;;;;;4806083;29;20145;-90
2023/05/21 00:19:38;;;;;;;37.35;22.48;;;15.20;81.60;;;;;;4806484;29;20054;-91
2023/05/21 00:22:06;;;;;;;33.17;20.83;;;15.20;81.70;;;;;;4805831;29;20100;-90
2023/05/21 00:24:35;;;;;;;31.83;19.90;;;15.10;80.90;;;;;;4806422;29;20077;-89
2023/05/21 00:27:03;;;;;;;35.47;22.65;;;15.10;80.60;;;;;;4791050;29;20486;-91
2023/05/21 00:29:33;;;;;;;35.50;21.38;;;15.10;81.20;;;;;;4806257;29;20502;-92
2023/05/21 00:32:05;;;;;;;39.63;24.55;;;15.00;81.00;;;;;;4806369;29;20051;-91
2023/05/21 00:34:32;;;;;;;40.87;21.97;;;14.90;81.00;;;;;;4821491;29;20468;-90
2023/05/21 00:37:01;;;;;;;33.60;20.70;;;14.80;80.90;;;;;;4803289;29;20142;-91
2023/05/21 00:39:28;;;;;;;36.05;21.38;;;14.70;81.10;;;;;;4788006;29;20411;-90
2023/05/21 00:41:56;;;;;;;35.85;22.55;;;14.60;81.20;;;;;;4788141;29;20051;-90
2023/05/21 00:44:24;;;;;;;36.95;20.83;;;14.50;81.30;;;;;;4787873;29;20051;-91
2023/05/21 00:46:54;;;;;;;34.23;20.23;;;14.50;81.40;;;;;;4788726;29;20079;-91
2023/05/21 00:49:23;;;;;;;34.92;20.17;;;14.60;81.20;;;;;;4788038;29;20066;-88
2023/05/21 00:51:50;;;;;;;34.55;20.83;;;14.60;80.80;;;;;;4788353;29;20116;-91
2023/05/21 00:54:18;;;;;;;32.75;20.25;;;14.60;81.10;;;;;;4787742;29;20145;-88
2023/05/21 00:56:46;;;;;;;35.05;21.52;;;14.60;81.20;;;;;;4791093;29;20095;-90
2023/05/21 00:59:17;;;;;;;32.97;18.87;;;14.60;81.50;;;;;;4791593;29;20522;-90
2023/05/21 01:01:44;;;;;;;33.35;19.40;;;14.60;80.90;;;;;;4791191;29;20517;-89
2023/05/21 01:04:12;;;;;;;35.17;21.42;;;14.50;80.90;;;;;;4791122;29;20083;-89
2023/05/21 01:06:39;;;;;;;31.40;18.98;;;14.60;80.90;;;;;;4791406;29;20108;-90
2023/05/21 01:09:08;;;;;;;33.65;19.52;;;14.60;80.80;;;;;;4791413;29;20059;-89
2023/05/21 01:11:42;;;;;;;31.57;18.67;;;14.60;80.70;;;;;;4791493;29;20055;-89
2023/05/21 01:14:11;;;;;;;33.83;21.35;;;14.60;80.60;;;;;;4791097;29;20048;-89
2023/05/21 01:16:42;;;;;;;36.50;21.05;;;14.60;80.60;;;;;;4791132;29;20074;-89
2023/05/21 01:19:19;;;;;;;35.67;20.23;;;14.50;80.70;;;;;;4776073;30;20043;-89
2023/05/21 01:21:52;;;;;;;30.35;18.58;;;14.50;81.00;;;;;;4791717;29;20086;-90
2023/05/21 01:24:19;;;;;;;30.73;18.53;;;14.40;80.60;;;;;;4790745;29;20051;-89
2023/05/21 01:26:47;;;;;;;28.95;18.25;;;14.30;80.60;;;;;;4791351;29;20077;-89
2023/05/21 01:29:14;;;;;;;30.55;18.00;;;14.20;80.60;;;;;;4790641;29;20054;-92
2023/05/21 01:31:54;;;;;;;32.05;18.58;;;14.30;80.60;;;;;;4776520;30;20084;-92
2023/05/21 01:34:31;;;;;;;33.35;20.00;;;14.20;80.90;;;;;;4790619;29;20047;-91
2023/05/21 01:37:21;;;;;;;33.87;19.37;;;14.10;82.30;;;;;;4790521;29;20565;-91
2023/05/21 01:39:55;;;;;;;36.38;21.98;;;14.20;83.00;;;;;;4775803;30;20509;-91
2023/05/21 01:42:23;;;;;;;33.97;21.17;;;14.30;84.00;;;;;;4790682;29;20105;-89
2023/05/21 01:44:53;;;;;;;34.35;19.52;;;14.30;84.30;;;;;;4790612;29;20390;-89
2023/05/21 01:47:23;;;;;;;27.95;18.25;;;14.30;83.80;;;;;;4791060;29;20047;-89
2023/05/21 01:49:51;;;;;;;34.63;19.13;;;14.30;83.60;;;;;;4790616;29;20048;-89
2023/05/21 01:52:19;;;;;;;27.98;17.20;;;14.40;83.20;;;;;;4790695;29;20138;-89
2023/05/21 01:54:46;;;;;;;30.20;17.23;;;14.40;82.70;;;;;;4790626;29;20051;-89
2023/05/21 01:57:13;;;;;;;29.23;17.95;;;14.30;82.50;;;;;;4775735;30;20144;-89
2023/05/21 01:59:40;;;;;;;28.40;18.23;;;14.40;82.60;;;;;;4790326;29;20097;-89
2023/05/21 02:02:07;;;;;;;25.03;15.50;;;14.30;82.10;;;;;;4790283;29;20054;-89
2023/05/21 02:04:36;;;;;;;24.67;16.38;;;14.30;81.90;;;;;;4790212;29;20039;-89
2023/05/21 02:07:03;;;;;;;25.15;16.38;;;14.30;81.10;;;;;;4789727;29;20047;-90
2023/05/21 02:09:30;;;;;;;23.63;14.70;;;14.20;80.80;;;;;;4790488;29;20047;-93
2023/05/21 02:11:58;;;;;;;22.40;14.50;;;14.20;80.60;;;;;;4790120;29;20074;-89
2023/05/21 02:14:28;;;;;;;22.97;14.50;;;14.10;80.60;;;;;;4790015;29;20047;-90
2023/05/21 02:16:56;;;;;;;25.90;16.17;;;14.10;80.70;;;;;;4790434;29;20054;-90
2023/05/21 02:19:23;;;;;;;24.13;15.82;;;14.00;81.10;;;;;;4790325;29;20495;-89
2023/05/21 02:21:51;;;;;;;23.10;15.60;;;14.00;81.10;;;;;;4789954;29;20138;-89
2023/05/21 02:24:18;;;;;;;23.75;16.00;;;14.00;80.90;;;;;;4775030;30;20521;-89
2023/05/21 02:26:47;;;;;;;23.27;14.73;;;14.00;80.90;;;;;;4789961;29;20476;-90
2023/05/21 02:29:14;;;;;;;23.58;15.38;;;14.00;81.00;;;;;;4789850;29;20054;-90
2023/05/21 02:31:42;;;;;;;23.52;14.50;;;13.90;80.80;;;;;;4789696;29;20051;-90
2023/05/21 02:34:09;;;;;;;23.88;14.75;;;13.90;81.00;;;;;;4790074;29;20054;-89
2023/05/21 02:36:36;;;;;;;22.58;14.23;;;13.90;80.70;;;;;;4789576;29;20063;-90
2023/05/21 02:39:04;;;;;;;22.27;15.23;;;13.90;80.50;;;;;;4789845;29;20151;-90
2023/05/21 02:41:31;;;;;;;22.92;14.48;;;13.90;80.60;;;;;;4789965;29;20070;-90
2023/05/21 02:43:58;;;;;;;22.25;14.13;;;13.80;80.90;;;;;;4789676;29;20142;-90
2023/05/21 02:46:25;;;;;;;22.95;15.20;;;13.90;81.80;;;;;;4789640;29;20054;-90
2023/05/21 02:48:52;;;;;;;26.23;15.23;;;13.90;82.90;;;;;;4774743;30;20521;-89
2023/05/21 02:51:20;;;;;;;26.23;15.37;;;13.90;83.20;;;;;;4789633;29;20270;-89
2023/05/21 02:53:47;;;;;;;21.92;14.38;;;13.90;83.30;;;;;;4804589;29;20150;-89
2023/05/21 02:56:17;;;;;;;20.70;13.85;;;14.00;83.50;;;;;;4789360;29;20058;-89
2023/05/21 02:58:44;;;;;;;22.58;14.32;;;14.00;83.20;;;;;;4789579;29;20055;-89
2023/05/21 03:01:11;;;;;;;23.08;14.23;;;14.00;83.20;;;;;;4789154;29;20047;-86
2023/05/21 03:03:38;;;;;;;21.27;13.10;;;14.00;83.00;;;;;;4789372;29;20047;-87
2023/05/21 03:06:08;;;;;;;24.48;14.80;;;14.10;82.70;;;;;;4789346;29;20082;-87
2023/05/21 03:08:36;;;;;;;22.15;14.02;;;14.10;82.90;;;;;;4774242;30;20048;-89
2023/05/21 03:11:03;;;;;;;19.38;12.45;;;14.00;82.60;;;;;;4789318;29;20102;-89
2023/05/21 03:13:30;;;;;;;22.42;14.00;;;14.00;82.90;;;;;;4774417;30;20047;-88
2023/05/21 03:16:01;;;;;;;20.23;13.07;;;14.00;82.50;;;;;;4789538;29;20051;-88
2023/05/21 03:18:30;;;;;;;20.85;13.10;;;14.10;82.30;;;;;;4788445;29;20464;-88
2023/05/21 03:20:57;;;;;;;18.35;11.75;;;14.10;82.30;;;;;;4789008;29;20051;-88
2023/05/21 03:23:25;;;;;;;18.02;11.40;;;14.10;82.20;;;;;;4774237;30;20089;-88
2023/05/21 03:25:55;;;;;;;21.30;12.82;;;14.20;81.90;;;;;;4774266;30;20096;-88
2023/05/21 03:28:22;;;;;;;18.87;12.50;;;14.20;82.30;;;;;;4788991;29;20082;-89
2023/05/21 03:30:49;;;;;;;21.80;13.05;;;14.20;82.30;;;;;;4774082;30;20063;-90
2023/05/21 03:33:31;;;;;;;23.70;13.50;;;14.20;82.50;;;;;;4788975;30;20059;-90
2023/05/21 03:36:02;;;;;;;19.27;12.80;;;14.20;82.60;;;;;;4788643;29;20123;-89
2023/05/21 03:38:35;;;;;;;20.65;12.63;;;14.30;82.60;;;;;;4788694;29;20055;-89
2023/05/21 03:41:04;;;;;;;18.60;11.80;;;14.30;82.50;;;;;;4788979;29;20130;-89
2023/05/21 03:43:32;;;;;;;19.98;11.65;;;14.40;82.40;;;;;;4788612;29;20070;-90
2023/05/21 03:45:59;;;;;;;17.90;12.18;;;14.40;82.20;;;;;;4788705;29;20537;-90
2023/05/21 03:48:45;;;;;;;19.17;12.20;;;14.40;82.40;;;;;;4801725;29;20054;-90
2023/05/21 03:51:16;;;;;;;19.35;11.88;;;14.40;82.50;;;;;;4789115;29;20142;-90
2023/05/21 03:53:44;;;;;;;19.20;12.13;;;14.40;82.90;;;;;;4788234;29;20150;-90
2023/05/21 03:56:11;;;;;;;17.90;11.70;;;14.40;82.70;;;;;;4788484;29;20055;-90
2023/05/21 03:58:39;;;;;;;19.45;11.95;;;14.50;82.80;;;;;;4788624;29;20055;-90
2023/05/21 04:01:09;;;;;;;19.65;12.70;;;14.50;83.00;;;;;;4788474;29;20058;-90
2023/05/21 04:03:40;;;;;;;19.80;12.55;;;14.50;83.30;;;;;;4788584;29;20518;-89
2023/05/21 04:06:08;;;;;;;20.47;12.67;;;14.50;83.40;;;;;;4789237;29;20054;-90
2023/05/21 04:08:38;;;;;;;17.35;11.57;;;14.50;83.40;;;;;;4773960;30;20112;-89
2023/05/21 04:11:05;;;;;;;16.33;10.80;;;14.50;83.60;;;;;;4788060;29;20090;-90
2023/05/21 04:13:32;;;;;;;20.60;11.35;;;14.60;83.40;;;;;;4788150;29;20057;-90
2023/05/21 04:16:08;;;;;;;20.23;11.05;;;14.70;83.20;;;;;;4788298;29;20051;-90
2023/05/21 04:18:36;;;;;;;18.10;11.00;;;14.80;83.00;;;;;;4788276;29;20149;-90
2023/05/21 04:21:04;;;;;;;17.05;10.50;;;14.90;82.80;;;;;;4788961;29;20055;-90
2023/05/21 04:23:32;;;;;;;18.05;11.65;;;15.00;82.70;;;;;;4789038;29;20062;-90
2023/05/21 04:26:08;;;;;;;17.27;10.73;;;15.00;82.20;;;;;;4774112;30;20051;-89
2023/05/21 04:28:40;;;;;;;15.40;10.10;;;15.10;81.90;;;;;;4788528;29;20054;-89
2023/05/21 04:31:11;;;;;;;21.20;11.40;;;15.10;81.60;;;;;;4788561;29;20051;-90
2023/05/21 04:33:40;;;;;;;16.35;10.45;;;15.30;81.40;;;;;;4773252;30;20081;-90
2023/05/21 04:36:11;;;;;;;17.33;10.90;;;15.50;81.10;;;;;;4787969;29;20120;-90
2023/05/21 04:38:40;;;;;;;17.80;11.00;;;15.60;80.80;;;;;;4787875;29;20058;-90
2023/05/21 04:41:10;;;;;;;17.10;10.60;;;15.70;80.50;;;;;;4788099;29;20051;-90
2023/05/21 04:43:42;;;;;;;19.70;11.43;;;15.90;80.90;;;;;;4788004;29;20533;-90
2023/05/21 04:46:12;;;;;;;18.92;11.95;;;16.00;81.10;;;;;;4788463;29;20047;-90
2023/05/21 04:48:41;;;;;;;18.13;11.18;;;16.00;80.80;;;;;;4803233;29;20078;-90
2023/05/21 04:51:08;;;;;;;20.60;11.43;;;16.00;79.30;;;;;;4787583;29;20062;-90
2023/05/21 04:53:35;;;;;;;16.05;11.02;;;16.20;79.50;;;;;;4787920;29;20055;-90
2023/05/21 04:56:04;;;;;;;16.33;10.83;;;16.30;79.70;;;;;;4787648;29;20051;-90
2023/05/21 04:58:33;;;;;;;16.20;10.43;;;16.50;79.30;;;;;;4788156;29;20051;-91
2023/05/21 05:01:02;;;;;;;16.15;10.60;;;16.60;79.30;;;;;;4788125;29;20062;-90
2023/05/21 05:03:30;;;;;;;17.25;10.77;;;16.70;78.60;;;;;;4787429;29;20544;-90
2023/05/21 05:05:58;;;;;;;15.90;11.25;;;16.80;78.70;;;;;;4788411;29;20071;-91
2023/05/21 05:08:26;;;;;;;16.80;10.07;;;17.00;78.30;;;;;;4787513;29;20154;-90
2023/05/21 05:10:53;;;;;;;16.10;10.20;;;17.10;78.40;;;;;;4788063;29;20055;-90
2023/05/21 05:13:20;;;;;;;16.77;10.50;;;17.20;77.90;;;;;;4787913;29;20043;-91
2023/05/21 05:15:47;;;;;;;15.35;10.27;;;17.30;77.20;;;;;;4787420;29;20514;-91
2023/05/21 05:18:17;;;;;;;15.57;10.10;;;17.40;77.10;;;;;;4787964;29;20059;-90
2023/05/21 05:20:45;;;;;;;14.67;7.97;;;17.50;77.20;;;;;;4802474;29;20048;-90
2023/05/21 05:23:12;;;;;;;15.02;9.27;;;17.60;75.30;;;;;;4787721;29;20169;-90
2023/05/21 05:25:40;;;;;;;15.23;9.02;;;17.70;76.00;;;;;;4787699;29;20047;-89
2023/05/21 05:28:08;;;;;;;14.48;8.93;;;17.80;75.80;;;;;;4787624;29;20062;-90
2023/05/21 05:30:37;;;;;;;13.93;9.07;;;17.90;74.90;;;;;;4787820;29;20069;-89
2023/05/21 05:33:16;;;;;;;14.27;8.27;;;18.00;75.70;;;;;;4787418;29;20054;-89
2023/05/21 05:35:43;;;;;;;18.95;11.00;;;18.20;74.80;;;;;;4789164;29;20498;-91
2023/05/21 05:38:10;;;;;;;19.63;11.10;;;18.30;75.10;;;;;;4820322;29;20058;-89
2023/05/21 05:40:38;;;;;;;16.08;10.75;;;18.10;75.70;;;;;;4791141;29;20426;-88
2023/05/21 05:43:05;;;;;;;15.23;11.13;;;18.10;75.80;;;;;;4823667;29;20047;-89
2023/05/21 05:45:32;;;;;;;16.13;10.67;;;18.00;76.10;;;;;;4808855;29;20078;-90
2023/05/21 05:48:01;;;;;;;18.08;10.70;;;18.10;76.60;;;;;;4794025;29;20058;-89
2023/05/21 05:50:28;;;;;;;18.67;10.85;;;18.20;76.00;;;;;;4804482;29;20051;-90
2023/05/21 05:52:55;;;;;;;17.23;10.18;;;18.30;76.10;;;;;;4794527;29;20129;-90
2023/05/21 05:55:24;;;;;;;15.25;9.85;;;18.50;75.80;;;;;;4808979;29;20051;-91
2023/05/21 05:57:51;;;;;;;18.47;10.13;;;18.50;74.30;;;;;;4793151;29;20047;-88
2023/05/21 06:00:19;;;;;;;14.93;10.15;;;18.60;74.20;;;;;;4793629;29;20137;-89
2023/05/21 06:02:48;;;;;;;14.40;9.63;;;18.60;74.70;;;;;;4808736;29;20395;-90
2023/05/21 06:05:15;;;;;;;17.92;9.70;;;18.60;74.20;;;;;;4808440;29;20050;-91
2023/05/21 06:07:45;;;;;;;15.50;9.63;;;18.70;74.90;;;;;;4808579;29;20086;-90
2023/05/21 06:10:12;;;;;;;14.33;9.60;;;18.80;73.90;;;;;;4793411;29;20141;-90
2023/05/21 06:12:39;;;;;;;13.45;9.38;;;18.90;73.90;;;;;;4808381;29;20062;-92
2023/05/21 06:15:07;;;;;;;15.63;9.57;;;19.00;73.50;;;;;;4808193;29;20096;-91
2023/05/21 06:17:35;;;;;;;15.18;9.63;;;19.10;73.20;;;;;;4808468;29;20051;-92
2023/05/21 06:20:06;;;;;;;14.00;8.93;;;19.10;72.90;;;;;;4793493;29;20422;-93
2023/05/21 06:22:33;;;;;;;13.93;8.90;;;19.30;72.00;;;;;;4808202;29;20142;-90
2023/05/21 06:25:01;;;;;;;15.55;8.90;;;19.30;70.70;;;;;;4823137;29;20113;-91
2023/05/21 06:27:29;;;;;;;15.88;9.75;;;19.30;71.60;;;;;;4792985;29;20043;-92
2023/05/21 06:29:58;;;;;;;16.55;11.25;;;19.40;71.70;;;;;;4822919;29;20086;-91
2023/05/21 06:32:25;;;;;;;16.30;9.00;;;19.40;71.70;;;;;;4792834;29;20121;-91
2023/05/21 06:34:52;;;;;;;14.87;8.83;;;19.50;70.60;;;;;;4805870;29;20055;-92
2023/05/21 06:37:20;;;;;;;15.48;8.88;;;19.60;71.50;;;;;;4793043;29;20050;-90
2023/05/21 06:39:50;;;;;;;16.50;8.90;;;19.70;70.30;;;;;;4792706;29;20043;-90
2023/05/21 06:42:18;;;;;;;13.98;9.27;;;19.70;70.00;;;;;;4789727;29;20500;-88
2023/05/21 06:49:37;;;;;;;18.80;8.80;;;20.00;69.90;;;;;;4756124;30;20098;-93
2023/05/21 06:52:04;;;;;;;14.32;8.45;;;20.10;69.10;;;;;;4738520;30;20052;-91
2023/05/21 06:54:31;;;;;;;17.30;9.18;;;20.20;67.60;;;;;;4798803;29;20055;-91
2023/05/21 06:56:59;;;;;;;14.52;8.82;;;20.30;68.30;;;;;;4792320;29;20059;-91
2023/05/21 06:59:26;;;;;;;13.13;8.85;;;20.50;68.40;;;;;;4807455;29;20051;-91
2023/05/21 07:01:54;;;;;;;12.93;8.47;;;20.60;68.60;;;;;;4789720;29;20066;-91
2023/05/21 07:04:22;;;;;;;16.25;8.73;;;20.80;67.70;;;;;;4798251;29;20070;-90
2023/05/21 07:06:51;;;;;;;13.60;8.45;;;20.80;67.20;;;;;;4789009;29;20081;-91
2023/05/21 07:09:18;;;;;;;16.00;9.07;;;20.80;67.40;;;;;;4797433;29;20050;-91
2023/05/21 07:11:46;;;;;;;16.30;9.02;;;20.80;68.30;;;;;;4790573;29;20137;-90
2023/05/21 07:14:15;;;;;;;16.43;9.30;;;20.80;68.30;;;;;;4786326;29;20063;-90
2023/05/21 07:16:42;;;;;;;14.68;9.07;;;20.90;68.30;;;;;;4789729;29;20059;-92
2023/05/21 07:19:10;;;;;;;14.20;9.38;;;20.90;68.20;;;;;;4788993;29;20085;-92
2023/05/21 07:21:38;;;;;;;19.65;10.52;;;20.90;68.00;;;;;;4788883;29;20138;-92
2023/05/21 07:24:08;;;;;;;16.35;10.02;;;20.90;69.50;;;;;;4803864;29;20054;-94
2023/05/21 07:26:37;;;;;;;18.33;11.30;;;21.10;69.20;;;;;;4803815;29;20083;-91
2023/05/21 07:29:05;;;;;;;16.92;10.13;;;21.10;68.90;;;;;;4789015;29;20051;-92
2023/05/21 07:31:32;;;;;;;14.07;10.00;;;21.10;67.90;;;;;;4788553;29;20047;-92
2023/05/21 07:34:00;;;;;;;16.30;9.85;;;21.10;67.50;;;;;;4774044;30;20120;-90
2023/05/21 07:36:30;;;;;;;18.60;10.48;;;21.10;68.10;;;;;;4813006;29;20142;-92
2023/05/21 07:38:58;;;;;;;15.90;11.00;;;21.10;68.20;;;;;;4788863;29;20084;-92
2023/05/21 07:41:25;;;;;;;17.15;10.82;;;21.20;68.90;;;;;;4799797;29;20063;-91
2023/05/21 07:43:52;;;;;;;16.90;10.55;;;21.30;68.20;;;;;;4821654;29;20077;-93
2023/05/21 07:46:20;;;;;;;16.55;10.55;;;21.40;68.40;;;;;;4821752;29;20055;-94
2023/05/21 07:48:54;;;;;;;16.05;10.68;;;21.40;68.40;;;;;;4792077;29;20510;-94
2023/05/21 07:51:21;;;;;;;16.00;10.87;;;21.50;68.20;;;;;;4806915;29;20054;-94
2023/05/21 07:53:48;;;;;;;15.60;9.75;;;21.60;68.10;;;;;;4791648;29;20059;-94
2023/05/21 07:56:19;;;;;;;14.68;10.23;;;21.70;66.00;;;;;;4822034;29;20430;-93
2023/05/21 07:58:47;;;;;;;16.75;11.75;;;21.70;67.70;;;;;;4791664;29;20116;-93
2023/05/21 08:01:15;;;;;;;17.00;11.32;;;21.70;68.60;;;;;;4806108;29;20144;-94
2023/05/21 08:03:43;;;;;;;17.53;11.60;;;21.80;68.60;;;;;;4791286;29;20054;-93
2023/05/21 08:06:10;;;;;;;17.67;11.60;;;22.00;69.20;;;;;;4806214;29;20053;-93
2023/05/21 08:08:37;;;;;;;18.30;12.07;;;22.00;68.80;;;;;;4791495;29;20055;-94
2023/05/21 08:11:05;;;;;;;20.75;11.60;;;21.90;68.50;;;;;;4806118;29;20425;-94
2023/05/21 08:13:33;;;;;;;20.60;12.35;;;22.00;69.10;;;;;;4791357;29;20050;-93
2023/05/21 08:16:05;;;;;;;20.00;11.70;;;22.10;69.70;;;;;;4806095;29;20051;-86
2023/05/21 08:18:33;;;;;;;16.13;11.35;;;22.10;68.50;;;;;;4790763;29;20046;-94
2023/05/21 08:21:00;;;;;;;16.90;10.95;;;22.10;67.70;;;;;;4807531;29;20054;-91
2023/05/21 08:23:28;;;;;;;14.10;10.55;;;22.10;68.40;;;;;;4788229;29;20043;-89
2023/05/21 08:25:58;;;;;;;16.20;10.52;;;22.10;68.20;;;;;;4790148;29;20046;-89
2023/05/21 08:28:26;;;;;;;17.27;11.37;;;22.20;66.70;;;;;;4803261;29;20071;-89
2023/05/21 08:30:54;;;;;;;16.95;11.13;;;22.20;67.80;;;;;;4803203;29;20046;-90
2023/05/21 08:33:23;;;;;;;17.77;11.85;;;22.40;68.10;;;;;;4819452;29;20055;-89
2023/05/21 08:35:51;;;;;;;15.68;11.27;;;22.60;66.60;;;;;;4804581;29;20510;-90
2023/05/21 08:38:23;;;;;;;18.40;11.70;;;22.60;67.30;;;;;;4817898;29;20053;-90
2023/05/21 08:41:03;;;;;;;16.70;11.10;;;22.80;68.70;;;;;;4790515;29;20598;-90
2023/05/21 08:43:30;;;;;;;16.90;11.20;;;22.90;66.20;;;;;;4803406;29;20051;-89
2023/05/21 08:46:00;;;;;;;16.40;10.50;;;22.80;65.60;;;;;;4802670;29;20238;-89
2023/05/21 08:48:31;;;;;;;16.52;10.77;;;22.60;65.20;;;;;;4790061;29;20067;-90
2023/05/21 08:51:00;;;;;;;18.13;11.88;;;22.60;64.70;;;;;;4820117;29;20142;-90
2023/05/21 08:53:33;;;;;;;17.83;11.90;;;22.60;66.20;;;;;;4803314;29;20542;-90
2023/05/21 08:56:03;;;;;;;18.77;11.68;;;22.70;67.70;;;;;;4804971;29;20043;-90
2023/05/21 08:58:44;;;;;;;21.58;12.77;;;22.60;67.00;;;;;;4805712;29;20050;-91
2023/05/21 09:01:12;;;;;;;19.52;13.23;;;22.60;66.10;;;;;;4791140;29;20053;-91
2023/05/21 09:03:45;;;;;;;20.02;12.27;;;22.70;67.70;;;;;;4805892;29;20047;-91
2023/05/21 09:06:13;;;;;;;17.50;12.53;;;22.80;68.10;;;;;;4790998;29;20077;-90
2023/05/21 09:08:49;;;;;;;19.25;12.30;;;22.80;66.60;;;;;;4805515;29;20143;-90
2023/05/21 09:11:32;;;;;;;17.60;12.23;;;22.90;66.10;;;;;;4792525;29;20062;-91
2023/05/21 09:14:00;;;;;;;15.30;11.38;;;23.00;68.60;;;;;;4805802;29;20054;-90
2023/05/21 09:16:49;;;;;;;17.98;11.60;;;22.90;65.80;;;;;;4809854;29;20059;-90
2023/05/21 09:19:21;;;;;;;17.90;11.63;;;23.00;66.20;;;;;;4824315;29;20058;-90
2023/05/21 09:21:51;;;;;;;16.20;11.13;;;23.10;65.50;;;;;;4809315;29;20602;-91
2023/05/21 09:24:21;;;;;;;18.27;11.60;;;23.10;65.50;;;;;;4823923;29;20050;-91
2023/05/21 09:26:50;;;;;;;17.52;11.52;;;23.10;65.20;;;;;;4794190;29;20055;-91
2023/05/21 09:29:18;;;;;;;15.38;11.10;;;23.10;64.70;;;;;;4808651;29;20464;-91
2023/05/21 09:31:45;;;;;;;16.00;11.23;;;23.10;65.10;;;;;;4808962;29;20051;-91
2023/05/21 09:34:13;;;;;;;17.70;12.35;;;23.20;65.80;;;;;;4791089;29;20138;-94
2023/05/21 09:36:42;;;;;;;16.05;11.32;;;23.40;64.50;;;;;;4786171;29;20193;-93
2023/05/21 09:39:15;;;;;;;14.23;10.60;;;23.50;65.10;;;;;;4791410;29;20146;-90
2023/05/21 09:41:43;;;;;;;15.40;11.07;;;23.60;63.50;;;;;;4790836;29;20464;-89
2023/05/21 09:44:10;;;;;;;19.13;10.80;;;23.70;64.40;;;;;;4778789;29;20129;-89
2023/05/21 09:46:41;;;;;;;15.38;10.68;;;23.60;63.50;;;;;;4793923;29;20046;-90
2023/05/21 09:49:23;;;;;;;16.70;10.35;;;23.70;63.90;;;;;;4793684;29;20079;-88
2023/05/21 09:51:55;;;;;;;16.85;11.05;;;23.70;63.20;;;;;;4808576;29;20053;-89
2023/05/21 09:54:23;;;;;;;14.98;10.18;;;23.80;63.80;;;;;;4793518;29;20555;-89
2023/05/21 09:56:52;;;;;;;15.83;10.33;;;23.90;63.80;;;;;;4790213;30;20051;-88
2023/05/21 09:59:20;;;;;;;16.10;11.20;;;23.60;63.00;;;;;;4775739;30;20575;-89
2023/05/21 10:01:51;;;;;;;15.07;10.00;;;23.60;64.50;;;;;;4782996;29;20625;-89
2023/05/21 10:04:20;;;;;;;14.63;10.13;;;23.80;64.90;;;;;;4793261;29;20566;-89
2023/05/21 10:06:48;;;;;;;16.20;10.57;;;23.80;64.60;;;;;;4783172;29;20043;-89
2023/05/21 10:09:19;;;;;;;15.33;10.67;;;24.00;62.90;;;;;;4793212;29;20065;-89
2023/05/21 10:11:48;;;;;;;16.55;10.68;;;24.10;64.90;;;;;;4793146;29;20418;-89
2023/05/21 10:14:21;;;;;;;14.80;10.15;;;24.10;63.40;;;;;;4788304;29;20061;-89
2023/05/21 10:16:51;;;;;;;15.25;10.15;;;24.30;63.20;;;;;;4778039;29;20550;-89
2023/05/21 10:19:21;;;;;;;16.35;9.77;;;24.30;62.60;;;;;;4804953;29;20452;-90
2023/05/21 10:21:49;;;;;;;17.50;10.53;;;24.30;62.20;;;;;;4789419;29;20086;-93
2023/05/21 10:24:18;;;;;;;15.20;9.55;;;24.30;61.30;;;;;;4790190;29;20520;-89
2023/05/21 10:26:49;;;;;;;13.52;9.32;;;24.40;61.80;;;;;;4789550;29;20149;-89
2023/05/21 10:29:18;;;;;;;13.60;9.48;;;24.50;61.20;;;;;;4792546;29;20130;-89
2023/05/21 10:31:48;;;;;;;14.55;8.93;;;24.30;59.80;;;;;;4804691;29;20143;-88
2023/05/21 10:34:16;;;;;;;13.77;8.87;;;24.30;62.00;;;;;;4774858;30;20534;-88
2023/05/21 10:36:47;;;;;;;16.60;9.10;;;24.30;60.80;;;;;;4788146;29;20047;-89
2023/05/21 10:39:18;;;;;;;15.00;8.57;;;24.50;60.60;;;;;;4807458;29;20495;-90
2023/05/21 10:41:57;;;;;;;13.25;8.90;;;24.60;60.30;;;;;;4792452;29;20082;-90
2023/05/21 10:44:31;;;;;;;12.27;8.18;;;24.60;59.20;;;;;;4792506;29;20448;-89
2023/05/21 10:47:36;;;;;;;13.27;8.43;;;24.70;60.10;;;;;;4804612;29;20051;-90
2023/05/21 10:50:31;;;;;;;12.93;8.23;;;24.80;59.60;;;;;;4804740;29;20073;-89
2023/05/21 10:53:09;;;;;;;12.02;7.55;;;24.80;56.60;;;;;;4807062;29;20698;-89
2023/05/21 10:56:02;;;;;;;13.45;8.70;;;24.80;57.30;;;;;;4792133;29;20057;-89
2023/05/21 10:58:32;;;;;;;11.75;7.60;;;25.00;58.70;;;;;;4782952;29;20047;-89
2023/05/21 11:01:01;;;;;;;13.77;8.03;;;25.10;59.40;;;;;;4806076;29;20100;-89
2023/05/21 11:03:30;;;;;;;14.05;7.50;;;25.30;58.30;;;;;;4806652;29;20055;-89
2023/05/21 11:06:05;;;;;;;12.40;7.65;;;25.30;57.20;;;;;;4804089;29;20054;-89
2023/05/21 11:08:37;;;;;;;14.30;7.03;;;25.10;57.30;;;;;;4792413;29;20376;-89
2023/05/21 11:11:05;;;;;;;12.93;7.35;;;25.20;56.90;;;;;;4775642;29;20058;-89
2023/05/21 11:13:49;;;;;;;13.20;7.50;;;25.20;56.20;;;;;;4806872;29;20409;-88
2023/05/21 11:16:17;;;;;;;15.82;7.00;;;25.40;56.80;;;;;;4787718;29;20066;-89
2023/05/21 11:18:44;;;;;;;13.18;7.53;;;25.30;56.80;;;;;;4791469;29;20054;-89
2023/05/21 11:21:16;;;;;;;12.88;6.88;;;25.40;57.70;;;;;;4791781;29;20059;-89
2023/05/21 11:23:50;;;;;;;11.23;6.88;;;25.50;57.10;;;;;;4791241;29;20134;-89
2023/05/21 11:26:22;;;;;;;12.63;6.77;;;25.60;57.50;;;;;;4805895;29;20077;-89
2023/05/21 11:29:04;;;;;;;14.40;6.72;;;25.40;56.90;;;;;;4791640;29;20058;-89
2023/05/21 11:31:37;;;;;;;12.02;6.55;;;25.50;56.90;;;;;;4806303;29;20069;-89
2023/05/21 11:34:27;;;;;;;11.65;6.05;;;25.60;56.90;;;;;;4790370;29;20047;-88
2023/05/21 11:37:19;;;;;;;11.52;5.97;;;25.50;55.30;;;;;;4802353;29;20038;-88
2023/05/21 11:39:47;;;;;;;11.10;5.70;;;25.40;56.70;;;;;;4819446;29;20487;-91
2023/05/21 11:42:37;;;;;;;9.57;5.65;;;25.50;55.40;;;;;;4824051;29;20061;-89
2023/05/21 11:45:05;;;;;;;10.40;5.25;;;25.40;56.30;;;;;;4808005;29;20054;-89
2023/05/21 11:47:32;;;;;;;12.15;5.20;;;25.50;55.10;;;;;;4807103;29;20043;-89
2023/05/21 11:50:01;;;;;;;11.13;5.00;;;25.20;55.30;;;;;;4807968;29;20042;-89
2023/05/21 11:52:30;;;;;;;9.23;4.27;;;25.00;56.70;;;;;;4793087;29;20459;-89
2023/05/21 11:54:58;;;;;;;9.90;5.05;;;25.00;55.40;;;;;;4806812;29;20058;-90
2023/05/21 11:57:30;;;;;;;11.02;5.68;;;24.60;55.30;;;;;;4793430;29;20513;-89
2023/05/21 11:59:59;;;;;;;8.82;4.68;;;24.50;55.60;;;;;;4807640;29;20058;-89
2023/05/21 12:02:29;;;;;;;9.57;4.90;;;24.30;56.70;;;;;;4807983;29;20141;-89
2023/05/21 12:04:58;;;;;;;10.07;4.73;;;24.10;58.80;;;;;;4807647;29;20059;-89
2023/05/21 12:07:28;;;;;;;9.25;4.75;;;24.10;59.40;;;;;;4791208;29;20448;-89
2023/05/21 12:09:56;;;;;;;10.77;5.07;;;24.10;59.80;;;;;;4807250;29;20046;-89
2023/05/21 12:12:27;;;;;;;11.30;5.28;;;24.10;60.20;;;;;;4792341;29;20081;-88
2023/05/21 12:15:12;;;;;;;11.60;5.68;;;24.20;60.30;;;;;;4810157;29;20053;-89
2023/05/21 12:17:40;;;;;;;16.13;5.30;;;24.30;60.80;;;;;;4808865;29;20050;-89
2023/05/21 12:20:09;;;;;;;10.82;5.05;;;24.40;60.40;;;;;;4807186;29;20154;-89
2023/05/21 12:22:41;;;;;;;9.90;4.65;;;24.50;60.30;;;;;;4807537;29;20050;-89
2023/05/21 12:25:09;;;;;;;9.95;4.57;;;24.60;59.70;;;;;;4806659;29;20107;-89
2023/05/21 12:27:36;;;;;;;8.05;3.88;;;24.50;58.40;;;;;;4806215;29;20050;-89
2023/05/21 12:30:04;;;;;;;9.10;4.10;;;24.50;58.30;;;;;;4793957;29;20104;-91
2023/05/21 12:32:31;;;;;;;8.60;4.28;;;24.70;56.90;;;;;;4793771;29;20080;-91
2023/05/21 12:34:58;;;;;;;8.98;4.25;;;25.00;55.90;;;;;;4808765;29;20050;-88
2023/05/21 12:37:30;;;;;;;7.65;3.50;;;25.20;56.30;;;;;;4808660;29;20050;-89
2023/05/21 12:40:00;;;;;;;9.45;4.28;;;25.50;53.80;;;;;;4806770;29;20493;-88
2023/05/21 12:42:34;;;;;;;10.83;3.73;;;25.60;54.70;;;;;;4807024;29;20060;-87
2023/05/21 12:45:09;;;;;;;10.23;3.78;;;25.60;52.40;;;;;;4807731;29;20141;-88
2023/05/21 12:47:36;;;;;;;8.90;3.83;;;25.70;53.10;;;;;;4821142;29;20050;-89
2023/05/21 12:50:08;;;;;;;7.57;3.30;;;25.70;52.70;;;;;;4808354;29;20046;-86